createdAt,value
2018-05-21T08:58:25.916Z,100311
2018-05-21T09:00:54.752Z,100326
2018-05-21T09:03:23.611Z,100326
2018-05-21T09:05:53.037Z,100320
2018-05-21T09:08:21.884Z,100315
2018-05-21T09:10:50.712Z,100313
2018-05-21T09:13:19.568Z,100307
2018-05-21T09:15:49.156Z,100306
2018-05-21T09:18:18.058Z,100304
2018-05-21T09:20:46.882Z,100302
2018-05-21T09:23:15.725Z,100309
2018-05-21T09:25:44.552Z,100301
2018-05-21T09:28:13.392Z,100305
2018-05-21T09:30:42.223Z,100301
2018-05-21T09:33:11.088Z,100306
2018-05-21T09:35:39.917Z,100307
2018-05-21T09:38:09.506Z,100304
2018-05-21T09:40:38.342Z,100296
2018-05-21T09:43:07.186Z,100304
2018-05-21T09:45:36.022Z,100296
2018-05-21T09:48:04.962Z,100294
2018-05-21T09:50:34.320Z,100289
2018-05-21T09:53:03.163Z,100300
2018-05-21T09:55:31.991Z,100294
2018-05-21T09:58:00.843Z,100286
2018-05-21T10:00:29.723Z,100284
2018-05-21T10:02:58.536Z,100290
2018-05-21T10:05:28.115Z,100287
2018-05-21T10:07:57.009Z,100286
2018-05-21T10:10:25.815Z,100285
2018-05-21T10:12:55.410Z,100285
2018-05-21T10:15:24.233Z,100278
2018-05-21T10:17:53.826Z,100284
2018-05-21T10:20:22.658Z,100283
2018-05-21T10:22:51.502Z,100276
2018-05-21T10:25:21.101Z,100262
2018-05-21T10:27:49.938Z,100272
2018-05-21T10:30:18.781Z,100276
2018-05-21T10:32:47.654Z,100271
2018-05-21T10:35:16.492Z,100278
2018-05-21T10:37:45.351Z,100272
2018-05-21T10:40:14.215Z,100271
2018-05-21T10:42:43.071Z,100268
2018-05-21T10:45:11.910Z,100259
2018-05-21T10:47:40.789Z,100269
2018-05-21T10:50:09.602Z,100255
2018-05-21T10:52:39.639Z,100256
2018-05-21T10:55:08.031Z,100256
2018-05-21T10:57:36.984Z,100248
2018-05-21T11:00:06.482Z,100243
2018-05-21T11:02:35.334Z,100249
2018-05-21T11:05:04.166Z,100236
2018-05-21T11:07:33.015Z,100233
2018-05-21T11:10:01.874Z,100227
2018-05-21T11:12:31.449Z,100232
2018-05-21T11:15:00.288Z,100231
2018-05-21T11:17:29.128Z,100224
2018-05-21T11:19:57.987Z,100221
2018-05-21T11:22:26.810Z,100224
2018-05-21T11:24:55.649Z,100222
2018-05-21T11:27:24.491Z,100218
2018-05-21T11:29:53.331Z,100206
2018-05-21T11:32:22.167Z,100215
2018-05-21T11:34:51.015Z,100213
2018-05-21T11:37:19.851Z,100210
2018-05-21T11:39:48.694Z,100209
2018-05-21T11:42:17.608Z,100205
2018-05-21T11:44:46.454Z,100206
2018-05-21T11:47:15.288Z,100205
2018-05-21T11:49:44.140Z,100203
2018-05-21T11:52:12.982Z,100197
2018-05-21T11:54:41.832Z,100195
2018-05-21T11:57:10.655Z,100197
2018-05-21T11:59:39.521Z,100205
2018-05-21T12:02:08.418Z,100189
2018-05-21T12:04:37.224Z,100198
2018-05-21T12:07:06.045Z,100196
2018-05-21T12:09:35.625Z,100189
2018-05-21T12:12:04.456Z,100192
2018-05-21T12:14:33.312Z,100191
2018-05-21T12:17:02.896Z,100187
2018-05-21T12:19:31.741Z,100185
2018-05-21T12:22:00.569Z,100176
2018-05-21T12:24:29.423Z,100180
2018-05-21T12:26:58.267Z,100178
2018-05-21T12:29:27.119Z,100177
2018-05-21T12:31:55.945Z,100178
2018-05-21T12:34:24.802Z,100177
2018-05-21T12:36:53.629Z,100165
2018-05-21T12:39:22.490Z,100172
2018-05-21T12:41:51.388Z,100166
2018-05-21T12:44:20.223Z,100169
2018-05-21T12:46:49.180Z,100165
2018-05-21T12:49:18.681Z,100161
2018-05-21T12:51:47.512Z,100171
2018-05-21T12:54:16.371Z,100161
2018-05-21T12:56:45.220Z,100158
2018-05-21T12:59:14.072Z,100156
2018-05-21T13:01:43.684Z,100155
2018-05-21T13:04:13.089Z,100157
2018-05-21T13:06:41.920Z,100158
2018-05-21T13:09:10.760Z,100146
2018-05-21T13:11:39.599Z,100150
2018-05-21T13:14:08.441Z,100152
2018-05-21T13:16:37.273Z,100147
2018-05-21T13:19:06.103Z,100145
2018-05-21T13:21:35.694Z,100150
2018-05-21T13:24:05.317Z,100148
2018-05-21T13:26:34.142Z,100148
2018-05-21T13:29:02.974Z,100147
2018-05-21T13:31:31.814Z,100147
2018-05-21T13:34:00.649Z,100140
2018-05-21T13:36:29.502Z,100137
2018-05-21T13:38:58.339Z,100134
2018-05-21T13:41:27.232Z,100131
2018-05-21T13:43:56.061Z,100133
2018-05-21T13:46:24.909Z,100125
2018-05-21T13:48:53.749Z,100125
2018-05-21T13:51:22.578Z,100122
2018-05-21T13:53:51.430Z,100114
2018-05-21T13:56:20.270Z,100117
2018-05-21T13:58:49.135Z,100113
2018-05-21T14:01:17.958Z,100105
2018-05-21T14:03:47.652Z,100108
2018-05-21T14:06:16.385Z,100104
2018-05-21T14:08:45.210Z,100089
2018-05-21T14:11:14.047Z,100090
2018-05-21T14:13:42.881Z,100088
2018-05-21T14:16:11.796Z,100082
2018-05-21T14:18:40.568Z,100084
2018-05-21T14:21:09.425Z,100093
2018-05-21T14:23:38.246Z,100080
2018-05-21T14:26:07.086Z,100087
2018-05-21T14:28:35.922Z,100080
2018-05-21T14:31:04.820Z,100094
2018-05-21T14:33:33.646Z,100077
2018-05-21T14:36:02.491Z,100067
2018-05-21T14:38:31.325Z,100068
2018-05-21T14:41:00.539Z,100064
2018-05-21T14:43:29.700Z,100065
2018-05-21T14:45:59.300Z,100065
2018-05-21T14:48:28.128Z,100060
2018-05-21T14:50:56.974Z,100052
2018-05-21T14:53:25.828Z,100056
2018-05-21T14:55:54.663Z,100052
2018-05-21T14:58:23.504Z,100052
2018-05-21T15:00:52.364Z,100051
2018-05-21T15:03:21.943Z,100057
2018-05-21T15:05:50.780Z,100055
2018-05-21T15:08:19.604Z,100046
2018-05-21T15:10:48.463Z,100048
2018-05-21T15:13:17.298Z,100052
2018-05-21T15:15:46.882Z,100052
2018-05-21T15:18:15.730Z,100053
2018-05-21T15:20:44.554Z,100043
2018-05-21T15:23:13.390Z,100046
2018-05-21T15:25:42.957Z,100044
2018-05-21T15:28:11.807Z,100036
2018-05-21T15:30:40.647Z,100037
2018-05-21T15:33:09.483Z,100045
2018-05-21T15:35:38.307Z,100035
2018-05-21T15:38:07.155Z,100036
2018-05-21T15:40:36.003Z,100027
2018-05-21T15:43:04.834Z,100028
2018-05-21T15:45:33.671Z,100030
2018-05-21T15:48:02.529Z,100019
2018-05-21T15:50:31.357Z,100020
2018-05-21T15:53:00.208Z,100024
2018-05-21T15:55:29.031Z,100011
2018-05-21T15:57:57.880Z,100008
2018-05-21T16:00:26.712Z,100010
2018-05-21T16:02:55.544Z,100007
2018-05-21T16:05:24.386Z,100010
2018-05-21T16:07:53.232Z,100004
2018-05-21T16:10:22.039Z,100013
2018-05-21T16:12:50.885Z,100010
2018-05-21T16:15:20.469Z,100005
2018-05-21T16:17:49.338Z,100004
2018-05-21T16:20:18.159Z,100000
2018-05-21T16:22:46.994Z,99998
2018-05-21T16:25:15.829Z,99997
2018-05-21T16:27:44.691Z,100001
2018-05-21T16:30:13.639Z,99998
2018-05-21T16:32:42.383Z,99994
2018-05-21T16:35:11.210Z,99992
2018-05-21T16:37:40.162Z,99989
2018-05-21T16:40:08.988Z,99990
2018-05-21T16:42:37.853Z,99990
2018-05-21T16:45:06.695Z,99992
2018-05-21T16:47:35.540Z,99987
2018-05-21T16:50:04.363Z,99976
2018-05-21T16:52:33.205Z,99988
2018-05-21T16:55:02.034Z,99998
2018-05-21T16:57:30.887Z,99992
2018-05-21T16:59:59.760Z,99991
2018-05-21T17:02:28.556Z,99993
2018-05-21T17:04:57.398Z,99994
2018-05-21T17:07:26.970Z,99992
2018-05-21T17:09:55.797Z,99996
2018-05-21T17:12:24.660Z,99996
2018-05-21T17:14:54.240Z,99994
2018-05-21T17:17:23.080Z,99998
2018-05-21T17:19:51.938Z,99997
2018-05-21T17:22:20.914Z,99995
2018-05-21T17:24:49.755Z,100007
2018-05-21T17:27:18.583Z,99995
2018-05-21T17:29:47.459Z,99990
2018-05-21T17:32:16.264Z,99994
2018-05-21T17:34:45.103Z,99991
2018-05-21T17:37:13.943Z,100001
2018-05-21T17:39:42.796Z,100003
2018-05-21T17:42:11.725Z,99992
2018-05-21T17:44:40.576Z,99990
2018-05-21T17:47:09.413Z,99994
2018-05-21T17:49:38.250Z,99987
2018-05-21T17:52:07.087Z,100001
2018-05-21T17:54:35.918Z,99995
2018-05-21T17:57:04.753Z,99995
2018-05-21T17:59:33.590Z,99991
2018-05-21T18:02:02.426Z,99987
2018-05-21T18:04:31.275Z,99990
2018-05-21T18:07:00.110Z,99995
2018-05-21T18:09:28.966Z,99987
2018-05-21T18:11:57.809Z,99995
2018-05-21T18:14:26.644Z,99988
2018-05-21T18:16:55.471Z,99994
2018-05-21T18:19:24.323Z,99995
2018-05-21T18:21:53.165Z,99992
2018-05-21T18:24:22.027Z,99994
2018-05-21T18:26:50.860Z,99999
2018-05-21T18:29:20.442Z,99998
2018-05-21T18:31:49.283Z,100010
2018-05-21T18:34:18.147Z,100006
2018-05-21T18:36:46.984Z,100000
2018-05-21T18:39:15.839Z,99994
2018-05-21T18:41:44.779Z,99994
2018-05-21T18:44:13.654Z,99996
2018-05-21T18:46:42.466Z,99989
2018-05-21T18:49:11.301Z,99996
2018-05-21T18:51:40.146Z,99992
2018-05-21T18:54:08.981Z,99992
2018-05-21T18:56:37.809Z,99996
2018-05-21T18:59:06.658Z,99998
2018-05-21T19:01:35.487Z,99999
2018-05-21T19:04:04.332Z,99999
2018-05-21T19:06:33.172Z,100003
2018-05-21T19:09:01.999Z,100004
2018-05-21T19:11:30.845Z,100003
2018-05-21T19:13:59.692Z,100001
2018-05-21T19:16:28.549Z,100002
2018-05-21T19:18:57.390Z,100001
2018-05-21T19:21:26.241Z,100004
2018-05-21T19:23:55.837Z,100001
2018-05-21T19:26:24.682Z,100002
2018-05-21T19:28:53.506Z,100004
2018-05-21T19:31:22.369Z,100007
2018-05-21T19:33:51.213Z,100010
2018-05-21T19:36:20.080Z,100004
2018-05-21T19:38:48.907Z,100013
2018-05-21T19:41:18.537Z,100004
2018-05-21T19:43:48.104Z,100005
2018-05-21T19:46:16.955Z,100007
2018-05-21T19:48:45.848Z,100018
2018-05-21T19:51:14.695Z,100014
2018-05-21T19:53:43.541Z,100015
2018-05-21T19:56:12.377Z,100014
2018-05-21T19:58:41.260Z,100009
2018-05-21T20:01:10.143Z,100016
2018-05-21T20:03:38.956Z,100014
2018-05-21T20:06:08.553Z,100015
2018-05-21T20:08:37.383Z,100014
2018-05-21T20:11:06.223Z,100009
2018-05-21T20:13:35.119Z,100010
2018-05-21T20:16:03.941Z,100012
2018-05-21T20:18:34.755Z,100008
2018-05-21T20:21:03.636Z,100011
2018-05-21T20:23:32.437Z,100012
2018-05-21T20:26:02.041Z,100004
2018-05-21T20:28:30.880Z,100005
2018-05-21T20:30:59.724Z,100013
2018-05-21T20:33:28.556Z,100015
2018-05-21T20:35:57.404Z,100010
2018-05-21T20:38:26.242Z,100014
2018-05-21T20:40:55.142Z,100013
2018-05-21T20:43:23.932Z,100005
2018-05-21T20:45:53.510Z,100013
2018-05-21T20:48:23.103Z,100007
2018-05-21T20:50:51.951Z,100009
2018-05-21T20:53:20.799Z,100009
2018-05-21T20:55:49.691Z,100000
2018-05-21T20:58:18.505Z,99995
2018-05-21T21:00:47.357Z,100003
2018-05-21T21:03:16.201Z,99997
2018-05-21T21:05:45.040Z,100003
2018-05-21T21:08:13.871Z,99994
2018-05-21T21:10:42.778Z,99996
2018-05-21T21:13:11.551Z,99996
2018-05-21T21:15:41.018Z,99999
2018-05-21T21:18:09.844Z,100003
2018-05-21T21:20:38.709Z,100005
2018-05-21T21:23:07.537Z,100002
2018-05-21T21:25:36.378Z,99994
2018-05-21T21:28:05.227Z,99995
2018-05-21T21:30:34.800Z,99998
2018-05-21T21:33:03.664Z,99993
2018-05-21T21:35:32.566Z,100007
2018-05-21T21:38:01.425Z,100031
2018-05-21T21:40:30.277Z,100033
2018-05-21T21:42:59.161Z,100031
2018-05-21T21:45:27.982Z,100039
2018-05-21T21:47:57.563Z,100031
2018-05-21T21:50:26.394Z,100039
2018-05-21T21:52:55.240Z,100036
2018-05-21T21:55:24.826Z,100028
2018-05-21T21:57:53.651Z,100033
2018-05-21T22:00:22.501Z,100018
2018-05-21T22:02:51.339Z,100024
2018-05-21T22:05:21.452Z,100027
2018-05-21T22:07:51.198Z,100023
2018-05-21T22:10:19.998Z,100019
2018-05-21T22:12:48.879Z,100019
2018-05-21T22:15:18.407Z,100026
2018-05-21T22:17:47.251Z,100021
2018-05-21T22:20:16.101Z,100021
2018-05-21T22:22:44.968Z,100019
2018-05-21T22:25:13.811Z,100022
2018-05-21T22:27:43.457Z,100018
2018-05-21T22:30:12.287Z,100011
2018-05-21T22:32:41.141Z,100014
2018-05-21T22:35:09.967Z,100005
2018-05-21T22:37:39.569Z,100009
2018-05-21T22:40:08.398Z,100006
2018-05-21T22:42:37.492Z,100006
2018-05-21T22:45:06.327Z,100004
2018-05-21T22:47:35.185Z,100000
2018-05-21T22:50:04.010Z,99994
2018-05-21T22:52:32.881Z,99993
2018-05-21T22:55:01.758Z,99992
2018-05-21T22:57:30.572Z,99996
2018-05-21T22:59:59.401Z,99991
2018-05-21T23:02:28.256Z,99992
2018-05-21T23:04:57.091Z,99989
2018-05-21T23:07:25.927Z,99988
2018-05-21T23:09:54.775Z,99986
2018-05-21T23:12:23.611Z,99988
2018-05-21T23:14:52.438Z,99989
2018-05-21T23:17:22.359Z,99988
2018-05-21T23:19:51.331Z,99989
2018-05-21T23:22:20.068Z,99974
2018-05-21T23:24:48.880Z,99982
2018-05-21T23:27:17.709Z,99975
2018-05-21T23:29:46.548Z,99973
2018-05-21T23:32:15.376Z,99969
2018-05-21T23:34:44.195Z,99969
2018-05-21T23:37:13.040Z,99967
2018-05-21T23:39:41.863Z,99959
2018-05-21T23:42:10.717Z,99959
2018-05-21T23:44:39.539Z,99967
2018-05-21T23:47:08.367Z,99961
2018-05-21T23:49:37.199Z,99964
2018-05-21T23:52:06.026Z,99957
2018-05-21T23:54:35.623Z,99952
2018-05-21T23:57:04.434Z,99949
2018-05-21T23:59:34.005Z,99951
